SPCL/PCL METAR and TAF weather

Enter ICAO airport designator
Station Type Date Time Source
SPCL METAR 2020/07/05 15:00 UTC NOAA

SPCL 051500Z 24003KT 9999 BKN015 27/23 Q1015 RMK BIRD HAZARD RWY 02/20 PP000


Station Type Date Time Source
SPCL Decoded METAR 2020/07/05 15:00 UTC NOAA

Pucallpa, Peru (SPCL) 08-25S 074-36W 149M
Jul 05, 2020 - 11:00 AM EDT / 2020.07.05 1500 UTC
Wind: from the WSW (240 degrees) at 3 MPH (3 KT):0
Visibility: greater than 7 mile(s):0
Sky conditions: mostly cloudy
Temperature: 80 F (27 C)
Dew Point: 73 F (23 C)
Relative Humidity: 78%
Pressure (altimeter): 29.97 in. Hg (1015 hPa)
ob: SPCL 051500Z 24003KT 9999 BKN015 27/23 Q1015 RMK BIRD HAZARD RWY 02/20 PP000
cycle: 15

Station Type Date Time Source
SPCL TAF 2020/07/04 18:33 UTC NOAA

TAF SPCL 041700Z 0418/0518 15005KT 9999 BKN015 BKN100 TX28/0420Z TN19/0511Z
TEMPO 0422/0503 06010KT 4000 RADZ BKN010 BKN080
TEMPO 0509/0514 17007KT 5000 DZ BR BKN005 BKN080

Example: see airport list